Time;durP1;ratioP1;P1;durP2;ratioP2;P2;SDS_P1;SDS_P2;PMS_P1;PMS_P2;Temp;Humidity;BMP_temperature;BMP_pressure;BME280_temperature;BME280_humidity;BME280_pressure;Samples;Min_cycle;Max_cycle;Signal;HPM_P1;HPM_P2
2023/02/02 00:01:17;;;;;;;3.33;1.40;;;;;;;4.75;93.58;96773.88;5038314;28;20313;-69
2023/02/02 00:03:46;;;;;;;6.23;1.80;;;;;;;4.88;93.08;96769.28;5037911;28;20208;-69
2023/02/02 00:06:12;;;;;;;2.90;1.47;;;;;;;4.81;92.89;96762.09;5038014;28;20207;-69
2023/02/02 00:08:39;;;;;;;3.87;1.40;;;;;;;4.83;92.50;96771.44;5038771;28;20200;-69
2023/02/02 00:11:06;;;;;;;3.50;1.10;;;;;;;4.83;92.53;96769.66;5038193;28;20229;-69
2023/02/02 00:13:32;;;;;;;1.30;1.20;;;;;;;4.78;92.20;96760.56;5037949;28;20903;-68
2023/02/02 00:15:59;;;;;;;4.07;1.57;;;;;;;4.88;92.33;96771.88;5037872;28;20209;-69
2023/02/02 00:18:26;;;;;;;2.30;0.87;;;;;;;4.92;92.19;96768.06;5038355;28;20197;-69
2023/02/02 00:20:53;;;;;;;2.00;0.97;;;;;;;4.88;92.42;96761.44;5037881;28;20220;-68
2023/02/02 00:23:20;;;;;;;3.50;1.63;;;;;;;4.89;92.58;96766.53;5037672;28;20236;-69
2023/02/02 00:25:49;;;;;;;4.20;1.43;;;;;;;4.98;92.50;96767.53;5037025;28;20200;-68
2023/02/02 00:28:16;;;;;;;1.03;0.83;;;;;;;4.82;93.00;96760.19;5038103;28;20209;-68
2023/02/02 00:30:44;;;;;;;0.93;0.83;;;;;;;4.81;93.59;96764.69;5037634;28;20716;-68
2023/02/02 00:33:10;;;;;;;9.27;1.27;;;;;;;4.80;93.94;96760.44;5037752;28;20205;-69
2023/02/02 00:35:40;;;;;;;0.83;0.73;;;;;;;4.86;93.61;96760.72;5037602;28;20209;-69
2023/02/02 00:38:08;;;;;;;3.60;0.70;;;;;;;4.89;93.54;96758.69;5037708;28;20202;-68
2023/02/02 00:40:35;;;;;;;4.70;1.17;;;;;;;4.79;93.18;96764.03;5037780;28;20257;-69
2023/02/02 00:43:01;;;;;;;3.80;1.20;;;;;;;4.78;93.53;96760.56;5036914;28;20229;-69
2023/02/02 00:45:27;;;;;;;1.90;1.03;;;;;;;4.70;93.64;96773.44;5036823;28;20216;-69
2023/02/02 00:47:53;;;;;;;4.80;1.40;;;;;;;4.76;93.72;96765.09;5037536;28;20209;-68
2023/02/02 00:50:21;;;;;;;5.50;1.83;;;;;;;4.80;94.05;96761.28;5038264;28;20282;-69
2023/02/02 00:52:48;;;;;;;5.10;1.10;;;;;;;4.63;94.46;96750.59;5037634;28;20196;-69
2023/02/02 00:55:17;;;;;;;2.67;1.73;;;;;;;4.73;94.61;96764.53;5036697;28;20216;-68
2023/02/02 00:57:44;;;;;;;2.57;0.93;;;;;;;4.73;94.43;96772.34;5037960;28;20295;-69
2023/02/02 01:00:13;;;;;;;4.97;1.30;;;;;;;4.73;95.05;96774.97;5037040;28;20247;-69
2023/02/02 01:02:40;;;;;;;3.47;1.10;;;;;;;4.63;95.15;96768.84;5036670;28;20224;-68
2023/02/02 01:05:07;;;;;;;4.17;1.60;;;;;;;4.67;95.10;96749.38;5036816;28;21294;-68
2023/02/02 01:07:33;;;;;;;2.27;1.30;;;;;;;4.60;95.30;96750.84;5037397;28;20205;-69
2023/02/02 01:10:00;;;;;;;4.43;1.77;;;;;;;4.62;95.39;96759.38;5036989;28;20228;-69
2023/02/02 01:12:28;;;;;;;3.33;1.40;;;;;;;4.65;95.91;96764.34;5037297;28;20288;-69
2023/02/02 01:14:54;;;;;;;8.07;2.13;;;;;;;4.63;95.05;96761.84;5036272;28;20208;-68
2023/02/02 01:17:20;;;;;;;6.07;2.10;;;;;;;4.72;94.94;96755.03;5036627;28;20231;-69
2023/02/02 01:19:47;;;;;;;1.47;0.77;;;;;;;4.66;95.27;96763.38;5036950;28;20230;-68
2023/02/02 01:22:14;;;;;;;2.07;1.57;;;;;;;4.59;95.54;96770.88;5036881;28;20231;-68
2023/02/02 01:24:40;;;;;;;1.90;0.80;;;;;;;4.68;95.47;96764.91;5035990;28;20905;-69
2023/02/02 01:27:07;;;;;;;1.57;0.93;;;;;;;4.71;95.91;96763.81;5036669;28;20568;-69
2023/02/02 01:29:35;;;;;;;4.30;1.10;;;;;;;4.77;96.09;96747.66;5036857;28;20228;-68
2023/02/02 01:32:01;;;;;;;4.83;2.20;;;;;;;4.66;96.99;96748.56;5036773;28;20594;-69
2023/02/02 01:34:28;;;;;;;2.80;1.83;;;;;;;4.64;97.26;96744.41;5035994;28;20200;-68
2023/02/02 01:36:54;;;;;;;9.50;1.70;;;;;;;4.61;97.70;96749.88;5036816;28;20205;-69
2023/02/02 01:39:21;;;;;;;2.83;1.50;;;;;;;4.68;97.15;96753.63;5036777;28;20244;-68
2023/02/02 01:41:47;;;;;;;2.23;1.10;;;;;;;4.64;97.57;96767.91;5035950;28;20208;-69
2023/02/02 01:44:51;;;;;;;2.00;1.17;;;;;;;4.70;97.52;96749.94;5035483;28;20216;-70
2023/02/02 01:47:20;;;;;;;5.37;1.93;;;;;;;4.71;97.90;96755.97;5036630;28;20579;-69
2023/02/02 01:49:48;;;;;;;7.07;1.60;;;;;;;4.73;97.29;96761.91;5036781;28;20232;-69
2023/02/02 01:52:16;;;;;;;2.80;1.50;;;;;;;4.61;98.05;96758.53;5037075;28;20211;-68
2023/02/02 01:54:57;;;;;;;11.63;0.73;;;;;;;4.80;97.53;96763.03;5034862;28;20205;-69
2023/02/02 01:57:29;;;;;;;5.10;1.90;;;;;;;4.75;97.57;96755.59;5036407;28;20215;-68
2023/02/02 01:59:58;;;;;;;4.73;0.83;;;;;;;4.65;97.84;96759.13;5037026;28;20240;-68
2023/02/02 02:02:29;;;;;;;3.13;1.20;;;;;;;4.70;97.39;96751.72;5037711;28;20231;-69
2023/02/02 02:04:56;;;;;;;0.80;0.80;;;;;;;4.63;97.34;96756.63;5036107;28;20197;-69
2023/02/02 02:07:23;;;;;;;0.67;0.60;;;;;;;4.70;97.57;96752.56;5036549;28;20211;-69
2023/02/02 02:09:50;;;;;;;4.13;1.23;;;;;;;4.59;97.67;96734.34;5036693;28;20224;-68
2023/02/02 02:12:17;;;;;;;2.73;0.93;;;;;;;4.70;97.38;96752.56;5036337;28;20239;-69
2023/02/02 02:17:45;;;;;;;3.40;1.30;;;;;;;4.77;97.47;96758.09;5036501;28;20215;-68
2023/02/02 02:27:27;;;;;;;5.07;1.07;;;;;;;4.79;97.20;96757.00;5036452;28;20223;-68
2023/02/02 02:30:10;;;;;;;5.20;1.77;;;;;;;4.75;98.08;96776.50;5036071;28;20228;-69
2023/02/02 02:32:44;;;;;;;7.27;1.77;;;;;;;4.74;98.19;96759.16;5036297;28;20569;-69
2023/02/02 02:35:20;;;;;;;4.93;1.23;;;;;;;4.73;99.13;96765.34;5035439;28;20669;-68
2023/02/02 02:37:53;;;;;;;2.77;0.90;;;;;;;4.64;99.05;96762.69;5035806;28;20211;-68
2023/02/02 02:40:26;;;;;;;1.77;1.07;;;;;;;4.62;99.46;96767.19;5035833;28;20232;-68
2023/02/02 02:42:55;;;;;;;2.43;1.23;;;;;;;4.60;99.58;96766.50;5036011;28;20692;-68
2023/02/02 02:45:24;;;;;;;7.07;1.03;;;;;;;4.59;99.63;96772.69;5035378;28;20219;-69
2023/02/02 02:47:53;;;;;;;7.97;1.47;;;;;;;4.62;99.93;96775.88;5036144;28;20205;-68
2023/02/02 02:50:20;;;;;;;2.37;1.07;;;;;;;4.55;99.86;96772.09;5035830;28;20232;-68
2023/02/02 02:52:49;;;;;;;5.53;1.27;;;;;;;4.53;99.79;96773.19;5035916;28;20213;-68
2023/02/02 02:55:15;;;;;;;3.03;1.43;;;;;;;4.47;100.00;96786.75;5035150;28;20224;-69
2023/02/02 02:57:59;;;;;;;2.73;1.20;;;;;;;4.56;100.00;96778.97;5036346;28;20211;-69
2023/02/02 03:00:49;;;;;;;1.77;1.17;;;;;;;4.55;100.00;96785.16;5035556;28;20259;-68
2023/02/02 03:03:27;;;;;;;1.17;1.07;;;;;;;4.58;100.00;96773.63;5022568;28;20221;-69
2023/02/02 03:06:06;;;;;;;4.23;1.00;;;;;;;4.66;100.00;96771.19;5036432;28;20684;-68
2023/02/02 03:08:38;;;;;;;1.43;1.20;;;;;;;4.59;100.00;96772.69;5038710;28;20201;-69
2023/02/02 03:11:07;;;;;;;5.57;1.87;;;;;;;4.51;100.00;96775.94;5039319;28;20217;-69
2023/02/02 03:13:34;;;;;;;3.47;1.30;;;;;;;4.52;100.00;96780.19;5038938;28;20200;-69
2023/02/02 03:16:01;;;;;;;4.20;2.27;;;;;;;4.51;100.00;96775.09;5038654;28;20218;-69
2023/02/02 03:18:31;;;;;;;3.30;1.73;;;;;;;4.58;100.00;96776.25;5039234;28;20204;-68
2023/02/02 03:20:58;;;;;;;1.67;1.00;;;;;;;4.49;100.00;96780.47;5040177;28;20666;-69
2023/02/02 03:23:24;;;;;;;7.93;1.50;;;;;;;4.52;100.00;96768.91;5038665;28;20727;-68
2023/02/02 03:25:51;;;;;;;3.23;0.70;;;;;;;4.54;100.00;96772.22;5038475;28;20215;-70
2023/02/02 03:28:19;;;;;;;2.33;1.20;;;;;;;4.55;100.00;96759.06;5039218;28;20208;-68
2023/02/02 03:30:48;;;;;;;6.60;1.47;;;;;;;4.49;100.00;96766.56;5038441;28;20694;-68
2023/02/02 03:33:15;;;;;;;6.77;1.20;;;;;;;4.52;100.00;96776.75;5039005;28;20200;-69
2023/02/02 03:35:43;;;;;;;8.20;1.40;;;;;;;4.53;100.00;96778.41;5038454;28;20216;-69
2023/02/02 03:38:11;;;;;;;3.20;1.80;;;;;;;4.53;100.00;96784.47;5038895;28;20209;-68
2023/02/02 03:40:38;;;;;;;3.63;1.40;;;;;;;4.61;100.00;96789.03;5038710;28;20231;-68
2023/02/02 03:43:04;;;;;;;3.80;1.10;;;;;;;4.55;100.00;96773.91;5038453;28;20243;-68
2023/02/02 03:45:34;;;;;;;8.87;2.33;;;;;;;4.61;100.00;96781.19;5037788;28;20208;-68
2023/02/02 03:48:00;;;;;;;7.60;1.67;;;;;;;4.55;100.00;96773.91;5038781;28;20322;-69
2023/02/02 03:50:27;;;;;;;0.97;0.93;;;;;;;4.54;100.00;96773.03;5036250;28;20236;-68
2023/02/02 03:52:55;;;;;;;2.37;1.17;;;;;;;4.60;100.00;96782.16;5038492;28;20200;-70
2023/02/02 03:55:21;;;;;;;6.63;2.37;;;;;;;4.56;100.00;96773.75;5037496;28;20217;-68
2023/02/02 03:57:49;;;;;;;5.93;1.60;;;;;;;4.61;100.00;96778.59;5038722;28;20201;-68
2023/02/02 04:00:16;;;;;;;4.50;1.50;;;;;;;4.66;100.00;96785.09;5038586;28;20228;-68
2023/02/02 04:02:42;;;;;;;6.63;1.47;;;;;;;4.60;100.00;96759.50;5038386;28;20225;-69
2023/02/02 04:05:09;;;;;;;1.20;1.00;;;;;;;4.69;99.91;96773.56;5038143;28;20204;-68
2023/02/02 04:07:35;;;;;;;6.50;1.33;;;;;;;4.68;99.66;96769.31;5038764;28;20216;-68
2023/02/02 04:10:03;;;;;;;4.27;1.50;;;;;;;4.74;100.00;96774.03;5038326;28;20228;-69
2023/02/02 04:12:30;;;;;;;13.60;1.80;;;;;;;4.74;100.00;96781.84;5038459;28;20201;-68
2023/02/02 04:14:56;;;;;;;3.87;1.50;;;;;;;4.62;100.00;96788.06;5037487;28;21123;-68
2023/02/02 04:17:22;;;;;;;6.97;1.80;;;;;;;4.69;100.00;96781.41;5037934;28;20216;-68
2023/02/02 04:19:51;;;;;;;5.17;2.10;;;;;;;4.57;100.00;96792.84;5038049;28;20225;-68
2023/02/02 04:22:18;;;;;;;7.23;1.27;;;;;;;4.58;100.00;96781.47;5038060;28;20783;-69
2023/02/02 04:24:45;;;;;;;1.37;0.87;;;;;;;4.53;100.00;96781.84;5037046;28;20225;-69
2023/02/02 04:27:12;;;;;;;7.20;1.63;;;;;;;4.55;100.00;96789.56;5038039;28;20212;-69
2023/02/02 04:29:39;;;;;;;7.00;1.13;;;;;;;4.59;100.00;96783.94;5038422;28;20246;-69
2023/02/02 04:32:05;;;;;;;4.63;1.27;;;;;;;4.59;100.00;96793.56;5037286;28;20207;-69
2023/02/02 04:34:32;;;;;;;2.13;1.10;;;;;;;4.65;100.00;96806.09;5037230;28;20200;-68
2023/02/02 04:36:58;;;;;;;7.20;1.27;;;;;;;4.71;100.00;96789.91;5037913;28;20200;-69
2023/02/02 04:39:25;;;;;;;1.57;1.17;;;;;;;4.57;100.00;96800.69;5037908;28;21252;-69
2023/02/02 04:41:51;;;;;;;4.20;1.70;;;;;;;4.76;100.00;96792.97;5037259;28;20219;-68
2023/02/02 04:44:19;;;;;;;5.37;1.77;;;;;;;4.88;100.00;96792.78;5036775;28;20232;-69
2023/02/02 04:46:45;;;;;;;5.00;1.13;;;;;;;4.70;100.00;96794.31;5037346;28;20673;-68
2023/02/02 04:49:12;;;;;;;1.83;1.07;;;;;;;4.70;100.00;96788.25;5037815;28;20201;-68
2023/02/02 04:51:39;;;;;;;5.17;1.00;;;;;;;4.76;100.00;96795.59;5037845;28;20212;-69
2023/02/02 04:54:05;;;;;;;10.70;1.40;;;;;;;4.85;99.93;96793.84;5036698;28;20205;-69
2023/02/02 04:56:32;;;;;;;5.53;1.70;;;;;;;4.81;99.79;96791.63;5037175;28;20704;-68
2023/02/02 04:58:58;;;;;;;6.57;1.13;;;;;;;4.90;99.17;96790.84;5037585;28;20208;-68
2023/02/02 05:01:26;;;;;;;3.00;0.60;;;;;;;5.02;98.67;96788.03;5037285;28;20704;-69
2023/02/02 05:03:53;;;;;;;1.27;1.00;;;;;;;4.94;98.88;96790.47;5036622;28;20235;-69
2023/02/02 05:06:19;;;;;;;3.13;1.57;;;;;;;4.95;98.84;96794.75;5036902;28;20208;-68
2023/02/02 05:08:46;;;;;;;2.83;1.20;;;;;;;5.00;98.33;96796.94;5037695;28;20217;-69
2023/02/02 05:11:15;;;;;;;10.80;1.27;;;;;;;4.97;98.64;96794.59;5037072;28;20448;-68
2023/02/02 05:13:45;;;;;;;3.57;0.90;;;;;;;4.96;99.20;96801.63;5036185;28;20209;-69
2023/02/02 05:16:12;;;;;;;5.33;1.10;;;;;;;4.99;98.54;96796.13;5037013;28;20204;-68
2023/02/02 05:18:39;;;;;;;0.80;0.73;;;;;;;5.05;98.15;96800.00;5037070;28;20223;-69
2023/02/02 05:21:06;;;;;;;1.73;0.67;;;;;;;5.02;98.19;96802.88;5037036;28;20235;-68
2023/02/02 05:23:32;;;;;;;5.47;1.50;;;;;;;4.98;98.40;96810.16;5036823;28;20232;-69
2023/02/02 05:25:59;;;;;;;6.33;1.43;;;;;;;5.06;97.77;96794.66;5036560;28;20657;-70
2023/02/02 05:28:25;;;;;;;4.37;1.40;;;;;;;5.09;98.31;96817.06;5036157;28;20216;-68
2023/02/02 05:30:52;;;;;;;8.53;1.43;;;;;;;5.06;97.95;96818.16;5037058;28;20224;-69
2023/02/02 05:33:18;;;;;;;2.13;1.13;;;;;;;5.10;97.80;96811.72;5037282;28;20208;-69
2023/02/02 05:35:46;;;;;;;3.77;1.17;;;;;;;5.23;97.41;96811.50;5036182;28;20201;-68
2023/02/02 05:38:12;;;;;;;1.07;0.80;;;;;;;5.10;97.76;96809.09;5036559;28;20224;-69
2023/02/02 05:40:39;;;;;;;1.47;1.23;;;;;;;5.10;97.63;96811.72;5037193;28;20308;-69
2023/02/02 05:43:05;;;;;;;1.30;1.20;;;;;;;5.15;97.23;96811.34;5036398;28;20205;-68
2023/02/02 05:45:32;;;;;;;2.10;0.90;;;;;;;5.09;97.25;96817.91;5035266;28;20212;-69
2023/02/02 05:47:58;;;;;;;3.50;1.13;;;;;;;5.03;97.71;96818.41;5036528;28;20205;-69
2023/02/02 05:50:25;;;;;;;1.00;0.70;;;;;;;5.11;97.12;96821.22;5036886;28;20233;-68
2023/02/02 05:52:53;;;;;;;1.17;0.83;;;;;;;5.14;98.11;96835.78;5036366;28;20232;-68
2023/02/02 05:55:19;;;;;;;2.63;1.27;;;;;;;5.12;98.15;96822.88;5035540;28;20220;-68
2023/02/02 05:57:46;;;;;;;3.57;1.17;;;;;;;5.09;98.23;96827.50;5037192;28;20551;-68
2023/02/02 06:00:13;;;;;;;2.87;1.00;;;;;;;5.25;98.58;96827.88;5036256;28;20707;-69
2023/02/02 06:02:40;;;;;;;1.70;0.93;;;;;;;5.12;98.44;96827.28;5036785;28;20216;-69
2023/02/02 06:05:07;;;;;;;5.83;1.13;;;;;;;5.22;98.72;96828.97;5035747;28;20221;-69
2023/02/02 06:07:34;;;;;;;2.37;1.07;;;;;;;5.04;99.32;96835.75;5036096;28;20703;-69
2023/02/02 06:10:01;;;;;;;0.70;0.70;;;;;;;5.16;98.93;96828.66;5036293;28;20613;-69
2023/02/02 06:12:28;;;;;;;0.77;0.70;;;;;;;5.13;98.94;96842.81;5036010;28;20197;-68
2023/02/02 06:14:54;;;;;;;1.87;1.47;;;;;;;5.03;99.77;96834.09;5035036;28;20212;-69
2023/02/02 06:17:21;;;;;;;3.83;0.87;;;;;;;5.00;99.59;96834.38;5036146;28;20208;-68
2023/02/02 06:19:47;;;;;;;2.53;1.40;;;;;;;5.04;99.22;96840.97;5036691;28;20243;-68
2023/02/02 06:22:14;;;;;;;6.00;0.90;;;;;;;5.04;98.79;96851.44;5035716;28;20696;-69
2023/02/02 06:24:40;;;;;;;0.90;0.70;;;;;;;5.08;98.84;96844.97;5035451;28;20740;-69
2023/02/02 06:27:08;;;;;;;2.87;0.73;;;;;;;5.25;98.44;96846.19;5036160;28;20204;-69
2023/02/02 06:29:34;;;;;;;1.03;0.90;;;;;;;5.14;98.39;96848.84;5037747;28;20216;-68
2023/02/02 06:32:00;;;;;;;7.13;1.07;;;;;;;5.15;98.44;96856.56;5036581;28;20205;-68
2023/02/02 06:34:27;;;;;;;6.47;1.50;;;;;;;5.18;97.92;96853.72;5035195;28;20212;-68
2023/02/02 06:36:53;;;;;;;1.17;0.90;;;;;;;5.17;97.39;96846.81;5036174;28;20204;-69
2023/02/02 06:39:20;;;;;;;1.33;0.97;;;;;;;5.16;98.15;96858.22;5036224;28;20304;-68
2023/02/02 06:41:47;;;;;;;4.83;0.97;;;;;;;5.17;97.22;96849.44;5038608;28;20209;-68
2023/02/02 06:44:15;;;;;;;2.40;1.10;;;;;;;5.25;97.49;96854.84;5038615;28;20706;-69
2023/02/02 06:46:41;;;;;;;3.67;1.17;;;;;;;5.19;97.72;96860.56;5040242;28;20719;-68
2023/02/02 06:49:08;;;;;;;1.37;0.90;;;;;;;5.09;97.79;96864.09;5039706;28;20201;-68
2023/02/02 06:51:34;;;;;;;1.90;1.00;;;;;;;5.22;97.47;96878.63;5039347;28;20208;-69
2023/02/02 06:54:02;;;;;;;3.57;0.90;;;;;;;5.11;97.95;96865.59;5040358;28;20212;-69
2023/02/02 06:56:29;;;;;;;3.00;0.90;;;;;;;5.23;98.12;96867.22;5039775;28;20220;-68
2023/02/02 06:58:55;;;;;;;0.77;0.60;;;;;;;5.13;98.32;96866.31;5039489;28;20198;-67
2023/02/02 07:01:23;;;;;;;3.13;1.30;;;;;;;5.27;97.70;96884.28;5039525;28;20225;-67
2023/02/02 07:03:50;;;;;;;0.97;0.70;;;;;;;5.17;98.10;96875.56;5039560;28;20235;-67
2023/02/02 07:06:19;;;;;;;3.70;0.93;;;;;;;5.21;98.24;96876.94;5039654;28;20317;-68
2023/02/02 07:08:46;;;;;;;5.70;1.50;;;;;;;5.20;98.38;96877.91;5039139;28;20197;-67
2023/02/02 07:11:12;;;;;;;1.80;1.00;;;;;;;5.03;98.75;96881.09;5039128;28;20244;-67
2023/02/02 07:13:39;;;;;;;3.73;1.20;;;;;;;5.14;98.73;96873.22;5039761;28;20205;-67
2023/02/02 07:16:06;;;;;;;1.20;0.80;;;;;;;5.09;98.60;96875.38;5039257;28;20220;-67
2023/02/02 07:18:35;;;;;;;5.73;1.37;;;;;;;5.12;99.12;96887.34;5039806;28;20216;-67
2023/02/02 07:21:02;;;;;;;5.67;1.33;;;;;;;5.11;99.13;96877.84;5039394;28;20793;-68
2023/02/02 07:23:29;;;;;;;6.40;1.50;;;;;;;5.12;99.59;96887.34;5038861;28;20224;-68
2023/02/02 07:26:03;;;;;;;15.03;2.53;;;;;;;5.19;99.91;96876.22;5038828;28;20745;-68
2023/02/02 07:28:30;;;;;;;8.80;1.97;;;;;;;5.15;100.00;96892.31;5039405;28;20205;-68
2023/02/02 07:30:56;;;;;;;1.97;1.10;;;;;;;5.00;100.00;96891.81;5038943;28;20213;-68
2023/02/02 07:33:23;;;;;;;3.20;1.63;;;;;;;4.95;100.00;96888.75;5039265;28;20219;-68
2023/02/02 07:35:50;;;;;;;1.53;1.23;;;;;;;4.98;100.00;96882.44;5037750;28;20206;-68
2023/02/02 07:38:17;;;;;;;3.23;1.43;;;;;;;4.97;100.00;96892.06;5038582;28;20219;-67
2023/02/02 07:40:44;;;;;;;5.43;2.43;;;;;;;4.98;100.00;96891.09;5038964;28;20228;-67
2023/02/02 07:43:11;;;;;;;5.53;1.83;;;;;;;5.09;100.00;96893.66;5039556;28;20851;-67
2023/02/02 07:45:38;;;;;;;2.57;1.07;;;;;;;5.02;100.00;96900.34;5037438;28;20217;-67
2023/02/02 07:48:05;;;;;;;8.23;2.20;;;;;;;4.93;100.00;96906.31;5038961;28;20201;-67
2023/02/02 07:50:31;;;;;;;3.07;1.73;;;;;;;4.91;100.00;96905.63;5038982;28;20228;-67
2023/02/02 07:53:00;;;;;;;5.83;2.37;;;;;;;5.04;100.00;96916.72;5038664;28;20284;-67
2023/02/02 07:55:26;;;;;;;4.87;1.50;;;;;;;4.84;100.00;96927.97;5037821;28;20972;-68
2023/02/02 07:57:54;;;;;;;5.50;1.40;;;;;;;4.92;100.00;96914.28;5038899;28;20205;-68
2023/02/02 08:00:21;;;;;;;4.73;1.53;;;;;;;4.90;100.00;96924.00;5038374;28;21073;-68
2023/02/02 08:02:48;;;;;;;2.87;1.60;;;;;;;4.92;100.00;96924.72;5038637;28;20209;-67
2023/02/02 08:05:15;;;;;;;3.87;2.00;;;;;;;4.97;100.00;96926.00;5036963;28;20221;-67
2023/02/02 08:07:43;;;;;;;8.90;1.57;;;;;;;4.85;100.00;96924.41;5037794;28;20342;-67
2023/02/02 08:10:11;;;;;;;8.20;2.10;;;;;;;4.98;100.00;96917.22;5037998;28;20220;-68
2023/02/02 08:12:38;;;;;;;4.47;1.70;;;;;;;4.85;100.00;96927.03;5039124;28;20197;-67
2023/02/02 08:15:05;;;;;;;2.20;1.70;;;;;;;4.80;100.00;96914.47;5038254;28;20192;-67
2023/02/02 08:17:31;;;;;;;9.90;1.80;;;;;;;4.77;100.00;96920.75;5034855;28;20688;-67
2023/02/02 08:19:58;;;;;;;4.53;1.80;;;;;;;4.89;100.00;96917.97;5037645;28;20221;-68
2023/02/02 08:22:25;;;;;;;4.70;1.60;;;;;;;4.86;100.00;96922.63;5037780;28;20209;-67
2023/02/02 08:24:51;;;;;;;0.87;0.70;;;;;;;4.70;100.00;96918.75;5036191;28;20232;-68
2023/02/02 08:27:19;;;;;;;7.30;1.73;;;;;;;4.84;100.00;96912.31;5036688;28;20202;-67
2023/02/02 08:29:45;;;;;;;1.67;1.07;;;;;;;4.79;100.00;96923.28;5037713;28;20240;-69
2023/02/02 08:32:12;;;;;;;10.10;2.17;;;;;;;4.86;100.00;96925.22;5037176;28;20966;-67
2023/02/02 08:34:39;;;;;;;2.33;1.40;;;;;;;4.83;100.00;96926.31;5037176;28;20231;-68
2023/02/02 08:37:06;;;;;;;4.30;1.83;;;;;;;4.78;100.00;96926.81;5038038;28;20350;-67
2023/02/02 08:39:32;;;;;;;3.77;1.57;;;;;;;4.91;100.00;96929.13;5037272;28;20224;-68
2023/02/02 08:41:59;;;;;;;1.37;1.07;;;;;;;4.92;100.00;96930.78;5037505;28;21073;-68
2023/02/02 08:44:27;;;;;;;1.70;0.90;;;;;;;5.06;100.00;96932.25;5037343;28;20228;-67
2023/02/02 08:46:53;;;;;;;5.97;1.30;;;;;;;4.97;100.00;96933.03;5037112;28;20219;-67
2023/02/02 08:49:19;;;;;;;4.10;1.13;;;;;;;4.95;100.00;96940.97;5037296;28;20216;-68
2023/02/02 08:51:46;;;;;;;2.63;1.20;;;;;;;5.02;100.00;96947.34;5038697;28;20200;-67
2023/02/02 08:54:13;;;;;;;5.23;1.27;;;;;;;4.94;100.00;96946.34;5036848;28;20220;-67
2023/02/02 08:56:39;;;;;;;2.93;1.53;;;;;;;5.12;100.00;96953.47;5037251;28;20200;-68
2023/02/02 08:59:06;;;;;;;3.70;1.63;;;;;;;5.11;100.00;96948.38;5039181;28;20210;-67
2023/02/02 09:01:35;;;;;;;8.33;2.47;;;;;;;5.29;100.00;96949.47;5038775;28;20786;-68
2023/02/02 09:04:04;;;;;;;6.57;1.30;;;;;;;5.28;100.00;96939.97;5036855;28;20189;-68
2023/02/02 09:06:33;;;;;;;4.07;1.83;;;;;;;5.41;100.00;96938.81;5037280;28;20798;-68
2023/02/02 09:08:59;;;;;;;2.60;0.93;;;;;;;5.31;100.00;96948.38;5037426;28;20220;-68
2023/02/02 09:11:26;;;;;;;4.90;1.83;;;;;;;5.39;100.00;96945.94;5037258;28;20225;-67
2023/02/02 09:13:55;;;;;;;2.63;1.67;;;;;;;5.49;100.00;96952.06;5036351;28;20662;-68
2023/02/02 09:16:22;;;;;;;6.87;1.50;;;;;;;5.42;100.00;96945.69;5036942;28;20733;-67
2023/02/02 09:18:50;;;;;;;8.43;1.57;;;;;;;5.57;100.00;96944.41;5036759;28;20689;-67
2023/02/02 09:21:18;;;;;;;29.87;1.80;;;;;;;5.67;100.00;96948.72;5036910;28;20664;-68
2023/02/02 09:23:47;;;;;;;1.37;1.20;;;;;;;5.66;100.00;96936.59;5036317;28;21305;-68
2023/02/02 09:26:15;;;;;;;3.27;1.20;;;;;;;5.69;100.00;96932.91;5036509;28;20717;-68
2023/02/02 09:28:43;;;;;;;2.17;1.37;;;;;;;5.74;100.00;96935.94;5036940;28;20208;-68
2023/02/02 09:31:10;;;;;;;0.70;0.70;;;;;;;5.57;100.00;96928.72;5037175;28;20239;-68
2023/02/02 09:33:37;;;;;;;3.27;1.70;;;;;;;5.58;100.00;96935.59;5036416;28;20205;-68
2023/02/02 09:36:07;;;;;;;2.97;1.50;;;;;;;5.72;100.00;96930.03;5036481;28;20196;-68
2023/02/02 09:38:34;;;;;;;6.40;2.53;;;;;;;5.61;100.00;96930.97;5036818;28;20621;-68
2023/02/02 09:41:01;;;;;;;5.40;2.40;;;;;;;5.68;100.00;96933.88;5036290;28;20221;-68
2023/02/02 09:43:47;;;;;;;3.97;2.30;;;;;;;5.69;100.00;96948.59;5035916;28;20220;-68
2023/02/02 09:46:24;;;;;;;3.00;1.40;;;;;;;5.72;100.00;96935.28;5036256;28;20228;-68
2023/02/02 09:48:59;;;;;;;1.77;1.03;;;;;;;5.72;100.00;96954.38;5036296;28;20201;-68
2023/02/02 09:51:35;;;;;;;7.33;1.80;;;;;;;5.77;100.00;96967.13;5036645;28;20228;-68
2023/02/02 09:54:07;;;;;;;4.33;1.60;;;;;;;5.69;100.00;96964.28;5035084;28;20228;-68
2023/02/02 09:56:39;;;;;;;4.87;1.33;;;;;;;5.63;100.00;96970.03;5033703;28;20205;-68
2023/02/02 09:59:12;;;;;;;3.97;1.60;;;;;;;5.66;100.00;96965.34;5034368;28;20201;-68
2023/02/02 10:01:43;;;;;;;3.77;1.40;;;;;;;5.63;100.00;96965.63;5034985;28;20795;-68
2023/02/02 10:04:17;;;;;;;5.37;1.67;;;;;;;5.72;100.00;96969.25;5033148;28;20299;-68
2023/02/02 10:06:48;;;;;;;5.27;1.43;;;;;;;5.67;100.00;96987.13;5033041;28;20704;-68
2023/02/02 10:09:34;;;;;;;30.63;2.17;;;;;;;5.73;100.00;96991.84;5033839;28;20251;-68
2023/02/02 10:12:06;;;;;;;3.73;1.43;;;;;;;5.62;100.00;97002.34;5033931;28;20258;-68
2023/02/02 10:14:36;;;;;;;1.60;1.07;;;;;;;5.68;100.00;96999.25;5034552;28;20204;-68
2023/02/02 10:17:11;;;;;;;0.80;0.70;;;;;;;5.69;100.00;97001.72;5038795;28;20657;-68
2023/02/02 10:19:40;;;;;;;2.97;1.30;;;;;;;5.68;100.00;97007.91;5038405;28;20223;-68
2023/02/02 10:22:12;;;;;;;1.73;1.00;;;;;;;5.71;100.00;97012.03;5037872;28;20201;-68
2023/02/02 10:24:39;;;;;;;4.60;1.60;;;;;;;5.71;100.00;96994.56;5038399;28;20708;-68
2023/02/02 10:27:11;;;;;;;1.40;1.20;;;;;;;5.86;100.00;96982.03;5038958;28;20201;-68
2023/02/02 10:29:48;;;;;;;4.90;1.13;;;;;;;5.76;100.00;96987.19;5039293;28;20220;-68
2023/02/02 10:32:21;;;;;;;6.07;1.80;;;;;;;5.72;100.00;96990.19;5038799;28;20201;-68
2023/02/02 10:35:02;;;;;;;1.50;1.20;;;;;;;5.73;100.00;96991.84;5038675;28;20289;-68
2023/02/02 10:37:36;;;;;;;1.80;1.30;;;;;;;5.83;100.00;96997.97;5038737;28;20201;-68
2023/02/02 10:40:15;;;;;;;3.20;1.30;;;;;;;5.82;100.00;96976.22;5039398;28;20213;-68
2023/02/02 10:45:37;;;;;;;3.97;1.90;;;;;;;5.77;100.00;96996.69;5038000;28;20228;-68
2023/02/02 10:48:14;;;;;;;5.07;1.80;;;;;;;5.88;100.00;96993.16;5038937;28;20193;-68
2023/02/02 10:50:43;;;;;;;3.00;1.10;;;;;;;5.70;100.00;96986.84;5038290;28;20770;-68
2023/02/02 10:53:14;;;;;;;2.97;0.97;;;;;;;5.71;100.00;96998.97;5038093;28;21097;-68
2023/02/02 10:55:45;;;;;;;3.97;1.30;;;;;;;5.76;100.00;96991.59;5039581;28;20689;-68
2023/02/02 10:58:22;;;;;;;3.63;1.40;;;;;;;5.69;100.00;97000.88;5039173;28;20197;-68
2023/02/02 11:00:53;;;;;;;7.30;1.80;;;;;;;5.61;100.00;96998.09;5038744;28;20224;-67
2023/02/02 11:03:22;;;;;;;1.73;1.17;;;;;;;5.61;100.00;96998.09;5038441;28;20209;-68
2023/02/02 11:08:36;;;;;;;6.07;1.50;;;;;;;5.67;100.00;97002.81;5038739;28;20254;-68
2023/02/02 11:11:11;;;;;;;0.80;0.80;;;;;;;5.63;100.00;96998.78;5038659;28;20217;-68
2023/02/02 11:13:43;;;;;;;3.10;1.40;;;;;;;5.68;100.00;97009.69;5038435;28;20740;-68
2023/02/02 11:16:26;;;;;;;2.87;1.70;;;;;;;5.69;100.00;96999.09;5038133;28;20200;-68
2023/02/02 11:18:52;;;;;;;4.23;1.60;;;;;;;5.58;100.00;97014.03;5039433;28;20250;-68
2023/02/02 11:21:22;;;;;;;3.70;1.30;;;;;;;5.71;100.00;97010.25;5039043;28;20225;-67
2023/02/02 11:23:55;;;;;;;2.43;1.23;;;;;;;5.72;100.00;97013.72;5037771;28;20201;-67
2023/02/02 11:26:23;;;;;;;2.57;1.20;;;;;;;5.65;100.00;97028.25;5038036;28;20705;-67
2023/02/02 11:28:52;;;;;;;1.23;1.07;;;;;;;5.62;100.00;97013.63;5039824;28;20201;-67
2023/02/02 11:31:32;;;;;;;3.07;1.53;;;;;;;5.87;100.00;97015.03;5038539;28;20717;-67
2023/02/02 11:34:09;;;;;;;0.80;0.77;;;;;;;5.81;100.00;97013.78;5038422;28;20209;-67
2023/02/02 11:36:36;;;;;;;3.13;1.13;;;;;;;5.54;100.00;97023.91;5039180;28;20202;-68
2023/02/02 11:39:19;;;;;;;1.83;0.67;;;;;;;5.75;100.00;97014.28;5038365;28;20201;-67
2023/02/02 11:41:46;;;;;;;5.20;1.27;;;;;;;5.60;100.00;97017.34;5038945;28;20206;-67
2023/02/02 11:44:24;;;;;;;8.13;1.90;;;;;;;5.70;100.00;97015.59;5038159;28;20228;-68
2023/02/02 11:46:51;;;;;;;7.93;1.37;;;;;;;5.57;100.00;97020.22;5038637;28;20221;-67
2023/02/02 11:49:20;;;;;;;12.73;1.60;;;;;;;5.63;100.00;97022.31;5038766;28;20246;-68
2023/02/02 11:51:57;;;;;;;0.63;0.63;;;;;;;5.68;100.00;97025.38;5038870;28;20236;-68
2023/02/02 11:54:28;;;;;;;2.33;1.50;;;;;;;5.76;100.00;97007.28;5037084;28;20575;-67
2023/02/02 11:56:59;;;;;;;9.27;1.93;;;;;;;5.69;100.00;97006.09;5038111;28;20193;-68
2023/02/02 11:59:29;;;;;;;4.67;1.53;;;;;;;5.65;100.00;97021.25;5036892;28;20252;-68